sensor_id;sensor_type;location;lat;lon;timestamp;P1;durP1;ratioP1;P2;durP2;ratioP2
54897;SDS011;40800;52.704;6.398;2023-03-20T00:00:24;55.22;;;50.08;;
54897;SDS011;40800;52.704;6.398;2023-03-20T00:02:50;55.83;;;51.03;;
54897;SDS011;40800;52.704;6.398;2023-03-20T00:05:17;54.22;;;49.42;;
54897;SDS011;40800;52.704;6.398;2023-03-20T00:07:45;54.25;;;49.78;;
54897;SDS011;40800;52.704;6.398;2023-03-20T00:10:12;54.17;;;49.90;;
54897;SDS011;40800;52.704;6.398;2023-03-20T00:12:40;51.90;;;48.13;;
54897;SDS011;40800;52.704;6.398;2023-03-20T00:15:13;50.38;;;46.25;;
54897;SDS011;40800;52.704;6.398;2023-03-20T00:18:00;51.67;;;47.33;;
54897;SDS011;40800;52.704;6.398;2023-03-20T00:20:26;51.10;;;46.90;;
54897;SDS011;40800;52.704;6.398;2023-03-20T00:22:52;51.70;;;47.80;;
54897;SDS011;40800;52.704;6.398;2023-03-20T00:25:20;48.40;;;44.90;;
54897;SDS011;40800;52.704;6.398;2023-03-20T00:27:47;49.20;;;45.40;;
54897;SDS011;40800;52.704;6.398;2023-03-20T00:30:18;49.27;;;45.97;;
54897;SDS011;40800;52.704;6.398;2023-03-20T00:32:52;50.13;;;46.60;;
54897;SDS011;40800;52.704;6.398;2023-03-20T00:37:49;47.50;;;44.33;;
54897;SDS011;40800;52.704;6.398;2023-03-20T00:40:16;45.70;;;42.40;;
54897;SDS011;40800;52.704;6.398;2023-03-20T00:42:43;47.92;;;44.63;;
54897;SDS011;40800;52.704;6.398;2023-03-20T00:45:18;46.30;;;42.70;;
54897;SDS011;40800;52.704;6.398;2023-03-20T00:47:46;45.97;;;42.92;;
54897;SDS011;40800;52.704;6.398;2023-03-20T00:50:15;48.03;;;44.97;;
54897;SDS011;40800;52.704;6.398;2023-03-20T00:52:46;47.38;;;43.65;;
54897;SDS011;40800;52.704;6.398;2023-03-20T00:55:12;46.50;;;43.20;;
54897;SDS011;40800;52.704;6.398;2023-03-20T00:57:39;48.42;;;45.00;;
54897;SDS011;40800;52.704;6.398;2023-03-20T01:00:24;46.70;;;43.42;;
54897;SDS011;40800;52.704;6.398;2023-03-20T01:02:58;45.47;;;42.13;;
54897;SDS011;40800;52.704;6.398;2023-03-20T01:05:25;47.38;;;44.08;;
54897;SDS011;40800;52.704;6.398;2023-03-20T01:07:51;47.15;;;43.65;;
54897;SDS011;40800;52.704;6.398;2023-03-20T01:10:17;45.05;;;41.90;;
54897;SDS011;40800;52.704;6.398;2023-03-20T01:12:43;44.15;;;40.83;;
54897;SDS011;40800;52.704;6.398;2023-03-20T01:15:17;44.08;;;40.60;;
54897;SDS011;40800;52.704;6.398;2023-03-20T01:17:47;48.47;;;45.17;;
54897;SDS011;40800;52.704;6.398;2023-03-20T01:20:18;45.88;;;42.42;;
54897;SDS011;40800;52.704;6.398;2023-03-20T01:22:47;45.92;;;42.53;;
54897;SDS011;40800;52.704;6.398;2023-03-20T01:25:13;47.33;;;43.72;;
54897;SDS011;40800;52.704;6.398;2023-03-20T01:27:40;47.20;;;43.67;;
54897;SDS011;40800;52.704;6.398;2023-03-20T01:30:15;47.40;;;43.47;;
54897;SDS011;40800;52.704;6.398;2023-03-20T01:32:42;47.35;;;43.72;;
54897;SDS011;40800;52.704;6.398;2023-03-20T01:35:11;50.92;;;46.72;;
54897;SDS011;40800;52.704;6.398;2023-03-20T01:37:38;49.53;;;45.42;;
54897;SDS011;40800;52.704;6.398;2023-03-20T01:40:05;48.83;;;45.08;;
54897;SDS011;40800;52.704;6.398;2023-03-20T01:42:40;50.83;;;46.97;;
54897;SDS011;40800;52.704;6.398;2023-03-20T01:45:13;49.28;;;45.30;;
54897;SDS011;40800;52.704;6.398;2023-03-20T01:47:41;48.55;;;44.63;;
54897;SDS011;40800;52.704;6.398;2023-03-20T01:50:27;52.83;;;48.53;;
54897;SDS011;40800;52.704;6.398;2023-03-20T01:53:00;52.42;;;48.53;;
54897;SDS011;40800;52.704;6.398;2023-03-20T01:55:30;50.28;;;46.15;;
54897;SDS011;40800;52.704;6.398;2023-03-20T01:57:56;49.97;;;45.97;;
54897;SDS011;40800;52.704;6.398;2023-03-20T02:00:27;50.78;;;46.75;;
54897;SDS011;40800;52.704;6.398;2023-03-20T02:02:53;52.75;;;48.83;;
54897;SDS011;40800;52.704;6.398;2023-03-20T02:05:19;55.42;;;50.92;;
54897;SDS011;40800;52.704;6.398;2023-03-20T02:07:49;53.65;;;48.95;;
54897;SDS011;40800;52.704;6.398;2023-03-20T02:10:19;56.17;;;51.58;;
54897;SDS011;40800;52.704;6.398;2023-03-20T02:12:45;58.50;;;53.58;;
54897;SDS011;40800;52.704;6.398;2023-03-20T02:15:11;56.43;;;51.57;;
54897;SDS011;40800;52.704;6.398;2023-03-20T02:17:40;58.33;;;53.15;;
54897;SDS011;40800;52.704;6.398;2023-03-20T02:20:12;61.03;;;56.03;;
54897;SDS011;40800;52.704;6.398;2023-03-20T02:45:30;58.28;;;53.67;;
54897;SDS011;40800;52.704;6.398;2023-03-20T02:48:15;56.97;;;52.53;;
54897;SDS011;40800;52.704;6.398;2023-03-20T02:56:45;54.58;;;49.97;;
54897;SDS011;40800;52.704;6.398;2023-03-20T03:01:27;52.38;;;48.15;;
54897;SDS011;40800;52.704;6.398;2023-03-20T03:04:00;51.97;;;47.97;;
54897;SDS011;40800;52.704;6.398;2023-03-20T03:06:33;51.83;;;48.08;;
54897;SDS011;40800;52.704;6.398;2023-03-20T03:11:49;47.28;;;43.70;;
54897;SDS011;40800;52.704;6.398;2023-03-20T03:17:06;46.85;;;43.17;;
54897;SDS011;40800;52.704;6.398;2023-03-20T03:19:34;46.25;;;42.75;;
54897;SDS011;40800;52.704;6.398;2023-03-20T03:22:02;49.00;;;45.35;;
54897;SDS011;40800;52.704;6.398;2023-03-20T03:24:38;48.22;;;44.67;;
54897;SDS011;40800;52.704;6.398;2023-03-20T03:27:16;45.50;;;42.20;;
54897;SDS011;40800;52.704;6.398;2023-03-20T03:29:46;45.95;;;42.75;;
54897;SDS011;40800;52.704;6.398;2023-03-20T03:32:20;45.45;;;42.42;;
54897;SDS011;40800;52.704;6.398;2023-03-20T03:34:51;42.85;;;39.67;;
54897;SDS011;40800;52.704;6.398;2023-03-20T03:40:00;41.83;;;39.03;;
54897;SDS011;40800;52.704;6.398;2023-03-20T03:42:38;42.10;;;39.27;;
54897;SDS011;40800;52.704;6.398;2023-03-20T03:45:20;40.33;;;37.67;;
54897;SDS011;40800;52.704;6.398;2023-03-20T03:48:06;40.83;;;37.90;;
54897;SDS011;40800;52.704;6.398;2023-03-20T03:50:40;39.83;;;36.95;;
54897;SDS011;40800;52.704;6.398;2023-03-20T03:53:13;40.70;;;37.95;;
54897;SDS011;40800;52.704;6.398;2023-03-20T03:55:52;39.08;;;36.42;;
54897;SDS011;40800;52.704;6.398;2023-03-20T03:58:35;37.60;;;35.03;;
54897;SDS011;40800;52.704;6.398;2023-03-20T04:01:04;38.97;;;36.20;;
54897;SDS011;40800;52.704;6.398;2023-03-20T04:03:36;39.40;;;36.50;;
54897;SDS011;40800;52.704;6.398;2023-03-20T04:06:04;37.88;;;35.20;;
54897;SDS011;40800;52.704;6.398;2023-03-20T04:08:32;38.60;;;35.85;;
54897;SDS011;40800;52.704;6.398;2023-03-20T04:10:58;38.08;;;35.38;;
54897;SDS011;40800;52.704;6.398;2023-03-20T04:13:24;37.83;;;35.03;;
54897;SDS011;40800;52.704;6.398;2023-03-20T04:15:50;38.08;;;35.22;;
54897;SDS011;40800;52.704;6.398;2023-03-20T04:18:16;40.13;;;37.13;;
54897;SDS011;40800;52.704;6.398;2023-03-20T04:20:43;42.28;;;39.17;;
54897;SDS011;40800;52.704;6.398;2023-03-20T04:23:10;42.58;;;39.42;;
54897;SDS011;40800;52.704;6.398;2023-03-20T04:25:35;44.67;;;41.20;;
54897;SDS011;40800;52.704;6.398;2023-03-20T04:28:01;46.60;;;42.80;;
54897;SDS011;40800;52.704;6.398;2023-03-20T04:30:27;46.38;;;42.58;;
54897;SDS011;40800;52.704;6.398;2023-03-20T04:32:52;45.70;;;42.28;;
54897;SDS011;40800;52.704;6.398;2023-03-20T04:35:18;45.70;;;42.15;;
54897;SDS011;40800;52.704;6.398;2023-03-20T04:37:43;46.22;;;42.63;;
54897;SDS011;40800;52.704;6.398;2023-03-20T04:40:09;47.53;;;44.00;;
54897;SDS011;40800;52.704;6.398;2023-03-20T04:42:35;48.25;;;44.22;;
54897;SDS011;40800;52.704;6.398;2023-03-20T04:45:01;47.83;;;44.08;;
54897;SDS011;40800;52.704;6.398;2023-03-20T04:47:26;46.72;;;43.13;;
54897;SDS011;40800;52.704;6.398;2023-03-20T04:49:52;48.17;;;44.50;;
54897;SDS011;40800;52.704;6.398;2023-03-20T04:52:17;47.78;;;44.20;;
54897;SDS011;40800;52.704;6.398;2023-03-20T04:54:43;49.42;;;45.63;;
54897;SDS011;40800;52.704;6.398;2023-03-20T04:57:08;50.05;;;46.05;;
54897;SDS011;40800;52.704;6.398;2023-03-20T04:59:34;48.38;;;44.63;;
54897;SDS011;40800;52.704;6.398;2023-03-20T05:01:59;48.30;;;44.63;;
54897;SDS011;40800;52.704;6.398;2023-03-20T05:04:25;49.90;;;46.00;;
54897;SDS011;40800;52.704;6.398;2023-03-20T05:06:51;50.43;;;46.40;;
54897;SDS011;40800;52.704;6.398;2023-03-20T05:09:17;49.30;;;45.40;;
54897;SDS011;40800;52.704;6.398;2023-03-20T05:11:42;47.67;;;44.08;;
54897;SDS011;40800;52.704;6.398;2023-03-20T05:14:08;48.97;;;45.08;;
54897;SDS011;40800;52.704;6.398;2023-03-20T05:16:34;48.25;;;44.58;;
54897;SDS011;40800;52.704;6.398;2023-03-20T05:19:00;46.92;;;43.33;;
54897;SDS011;40800;52.704;6.398;2023-03-20T05:21:25;50.92;;;47.10;;
54897;SDS011;40800;52.704;6.398;2023-03-20T05:23:51;50.75;;;46.83;;
54897;SDS011;40800;52.704;6.398;2023-03-20T05:26:16;51.35;;;47.45;;
54897;SDS011;40800;52.704;6.398;2023-03-20T05:28:42;50.53;;;46.63;;
54897;SDS011;40800;52.704;6.398;2023-03-20T05:31:07;51.72;;;47.83;;
54897;SDS011;40800;52.704;6.398;2023-03-20T05:33:33;50.83;;;47.20;;
54897;SDS011;40800;52.704;6.398;2023-03-20T05:35:58;50.60;;;46.92;;
54897;SDS011;40800;52.704;6.398;2023-03-20T05:38:24;48.30;;;44.85;;
54897;SDS011;40800;52.704;6.398;2023-03-20T05:40:54;47.63;;;44.13;;
54897;SDS011;40800;52.704;6.398;2023-03-20T05:43:21;47.28;;;43.83;;
54897;SDS011;40800;52.704;6.398;2023-03-20T05:45:47;50.40;;;46.67;;
54897;SDS011;40800;52.704;6.398;2023-03-20T05:48:12;47.25;;;43.85;;
54897;SDS011;40800;52.704;6.398;2023-03-20T05:50:38;46.03;;;43.05;;
54897;SDS011;40800;52.704;6.398;2023-03-20T05:53:04;48.90;;;45.28;;
54897;SDS011;40800;52.704;6.398;2023-03-20T05:55:30;49.22;;;45.75;;
54897;SDS011;40800;52.704;6.398;2023-03-20T05:57:56;46.22;;;42.75;;
54897;SDS011;40800;52.704;6.398;2023-03-20T06:00:22;45.63;;;42.33;;
54897;SDS011;40800;52.704;6.398;2023-03-20T06:02:48;43.75;;;40.35;;
54897;SDS011;40800;52.704;6.398;2023-03-20T06:05:14;41.00;;;37.92;;
54897;SDS011;40800;52.704;6.398;2023-03-20T06:07:40;42.30;;;39.30;;
54897;SDS011;40800;52.704;6.398;2023-03-20T06:10:05;41.83;;;38.80;;
54897;SDS011;40800;52.704;6.398;2023-03-20T06:12:31;41.25;;;38.35;;
54897;SDS011;40800;52.704;6.398;2023-03-20T06:14:57;44.03;;;40.72;;
54897;SDS011;40800;52.704;6.398;2023-03-20T06:17:22;41.60;;;38.25;;
54897;SDS011;40800;52.704;6.398;2023-03-20T06:19:48;42.30;;;39.28;;
54897;SDS011;40800;52.704;6.398;2023-03-20T06:22:13;42.17;;;39.25;;
54897;SDS011;40800;52.704;6.398;2023-03-20T06:24:39;41.65;;;38.35;;
54897;SDS011;40800;52.704;6.398;2023-03-20T06:27:05;41.13;;;37.72;;
54897;SDS011;40800;52.704;6.398;2023-03-20T06:29:30;40.35;;;37.25;;
54897;SDS011;40800;52.704;6.398;2023-03-20T06:31:56;41.28;;;38.10;;
54897;SDS011;40800;52.704;6.398;2023-03-20T06:34:21;39.33;;;36.22;;
54897;SDS011;40800;52.704;6.398;2023-03-20T06:36:47;41.00;;;37.92;;
54897;SDS011;40800;52.704;6.398;2023-03-20T06:39:13;41.17;;;37.88;;
54897;SDS011;40800;52.704;6.398;2023-03-20T06:41:38;39.50;;;36.28;;
54897;SDS011;40800;52.704;6.398;2023-03-20T06:44:04;39.92;;;36.88;;
54897;SDS011;40800;52.704;6.398;2023-03-20T06:46:29;39.53;;;36.38;;
54897;SDS011;40800;52.704;6.398;2023-03-20T06:48:55;40.00;;;36.55;;
54897;SDS011;40800;52.704;6.398;2023-03-20T06:51:21;40.33;;;37.22;;
54897;SDS011;40800;52.704;6.398;2023-03-20T06:53:46;40.13;;;36.13;;
54897;SDS011;40800;52.704;6.398;2023-03-20T06:56:12;37.85;;;34.50;;
54897;SDS011;40800;52.704;6.398;2023-03-20T06:58:37;37.80;;;34.78;;
54897;SDS011;40800;52.704;6.398;2023-03-20T07:01:10;38.13;;;34.70;;
54897;SDS011;40800;52.704;6.398;2023-03-20T07:03:39;37.25;;;34.05;;
54897;SDS011;40800;52.704;6.398;2023-03-20T07:06:05;36.83;;;33.70;;
54897;SDS011;40800;52.704;6.398;2023-03-20T07:08:31;36.50;;;33.25;;
54897;SDS011;40800;52.704;6.398;2023-03-20T07:10:58;37.57;;;34.23;;
54897;SDS011;40800;52.704;6.398;2023-03-20T07:13:24;35.92;;;33.20;;
54897;SDS011;40800;52.704;6.398;2023-03-20T07:15:50;36.90;;;33.95;;
54897;SDS011;40800;52.704;6.398;2023-03-20T07:18:16;36.88;;;33.80;;
54897;SDS011;40800;52.704;6.398;2023-03-20T07:20:42;36.88;;;33.78;;
54897;SDS011;40800;52.704;6.398;2023-03-20T07:23:08;35.47;;;32.60;;
54897;SDS011;40800;52.704;6.398;2023-03-20T07:25:34;36.33;;;33.08;;
54897;SDS011;40800;52.704;6.398;2023-03-20T07:28:00;34.08;;;31.30;;
54897;SDS011;40800;52.704;6.398;2023-03-20T07:30:25;35.72;;;32.65;;
54897;SDS011;40800;52.704;6.398;2023-03-20T07:32:51;34.83;;;31.95;;
54897;SDS011;40800;52.704;6.398;2023-03-20T07:35:17;34.67;;;31.73;;
54897;SDS011;40800;52.704;6.398;2023-03-20T07:37:43;33.20;;;30.35;;
54897;SDS011;40800;52.704;6.398;2023-03-20T07:40:08;34.50;;;31.58;;
54897;SDS011;40800;52.704;6.398;2023-03-20T07:42:35;34.40;;;31.27;;
54897;SDS011;40800;52.704;6.398;2023-03-20T07:45:00;35.10;;;32.00;;
54897;SDS011;40800;52.704;6.398;2023-03-20T07:47:26;34.30;;;31.17;;
54897;SDS011;40800;52.704;6.398;2023-03-20T07:49:52;34.30;;;31.35;;
54897;SDS011;40800;52.704;6.398;2023-03-20T07:52:20;33.25;;;30.27;;
54897;SDS011;40800;52.704;6.398;2023-03-20T07:54:45;34.90;;;31.77;;
54897;SDS011;40800;52.704;6.398;2023-03-20T07:57:11;33.60;;;30.60;;
54897;SDS011;40800;52.704;6.398;2023-03-20T07:59:36;35.08;;;32.08;;
54897;SDS011;40800;52.704;6.398;2023-03-20T08:02:02;33.20;;;30.38;;
54897;SDS011;40800;52.704;6.398;2023-03-20T08:04:27;33.58;;;30.48;;
54897;SDS011;40800;52.704;6.398;2023-03-20T08:06:53;33.83;;;30.55;;
54897;SDS011;40800;52.704;6.398;2023-03-20T08:09:18;33.47;;;30.48;;
54897;SDS011;40800;52.704;6.398;2023-03-20T08:11:44;32.65;;;29.42;;
54897;SDS011;40800;52.704;6.398;2023-03-20T08:14:10;32.85;;;30.05;;
54897;SDS011;40800;52.704;6.398;2023-03-20T08:16:36;31.00;;;27.98;;
54897;SDS011;40800;52.704;6.398;2023-03-20T08:19:02;31.58;;;28.65;;
54897;SDS011;40800;52.704;6.398;2023-03-20T08:21:29;33.05;;;29.83;;
54897;SDS011;40800;52.704;6.398;2023-03-20T08:23:56;34.20;;;31.10;;
54897;SDS011;40800;52.704;6.398;2023-03-20T08:26:22;32.97;;;29.95;;
54897;SDS011;40800;52.704;6.398;2023-03-20T08:28:47;31.67;;;28.77;;
54897;SDS011;40800;52.704;6.398;2023-03-20T08:31:13;30.92;;;28.17;;
54897;SDS011;40800;52.704;6.398;2023-03-20T08:33:39;32.38;;;29.58;;
54897;SDS011;40800;52.704;6.398;2023-03-20T08:36:05;31.60;;;28.50;;
54897;SDS011;40800;52.704;6.398;2023-03-20T08:38:30;31.77;;;28.80;;
54897;SDS011;40800;52.704;6.398;2023-03-20T08:40:56;31.85;;;28.60;;
54897;SDS011;40800;52.704;6.398;2023-03-20T08:43:22;30.02;;;27.13;;
54897;SDS011;40800;52.704;6.398;2023-03-20T08:45:47;29.00;;;26.42;;
54897;SDS011;40800;52.704;6.398;2023-03-20T08:48:13;27.73;;;25.13;;
54897;SDS011;40800;52.704;6.398;2023-03-20T08:50:39;28.75;;;26.13;;
54897;SDS011;40800;52.704;6.398;2023-03-20T08:53:04;27.42;;;24.73;;
54897;SDS011;40800;52.704;6.398;2023-03-20T08:55:31;28.38;;;25.60;;
54897;SDS011;40800;52.704;6.398;2023-03-20T08:57:56;27.08;;;24.48;;
54897;SDS011;40800;52.704;6.398;2023-03-20T09:00:22;28.70;;;25.85;;
54897;SDS011;40800;52.704;6.398;2023-03-20T09:02:48;28.13;;;25.27;;
54897;SDS011;40800;52.704;6.398;2023-03-20T09:05:14;28.00;;;25.40;;
54897;SDS011;40800;52.704;6.398;2023-03-20T09:07:40;27.50;;;25.08;;
54897;SDS011;40800;52.704;6.398;2023-03-20T09:10:06;28.20;;;25.60;;
54897;SDS011;40800;52.704;6.398;2023-03-20T09:12:32;28.60;;;25.83;;
54897;SDS011;40800;52.704;6.398;2023-03-20T09:14:58;27.40;;;24.63;;
54897;SDS011;40800;52.704;6.398;2023-03-20T09:17:24;25.88;;;23.38;;
54897;SDS011;40800;52.704;6.398;2023-03-20T09:19:50;27.40;;;24.80;;
54897;SDS011;40800;52.704;6.398;2023-03-20T09:22:15;26.15;;;23.52;;
54897;SDS011;40800;52.704;6.398;2023-03-20T09:24:44;25.70;;;23.02;;
54897;SDS011;40800;52.704;6.398;2023-03-20T09:27:10;25.60;;;23.05;;
54897;SDS011;40800;52.704;6.398;2023-03-20T09:29:38;26.40;;;23.92;;
54897;SDS011;40800;52.704;6.398;2023-03-20T09:32:04;25.52;;;22.67;;
54897;SDS011;40800;52.704;6.398;2023-03-20T09:34:30;23.35;;;21.15;;
54897;SDS011;40800;52.704;6.398;2023-03-20T09:36:56;22.23;;;20.10;;
54897;SDS011;40800;52.704;6.398;2023-03-20T09:39:21;22.52;;;20.27;;
54897;SDS011;40800;52.704;6.398;2023-03-20T09:41:47;21.17;;;19.27;;
54897;SDS011;40800;52.704;6.398;2023-03-20T09:47:22;21.92;;;19.63;;
54897;SDS011;40800;52.704;6.398;2023-03-20T09:50:12;21.88;;;19.83;;
54897;SDS011;40800;52.704;6.398;2023-03-20T09:55:32;23.25;;;20.80;;
54897;SDS011;40800;52.704;6.398;2023-03-20T09:58:22;21.10;;;18.88;;
54897;SDS011;40800;52.704;6.398;2023-03-20T10:00:51;19.77;;;17.80;;
54897;SDS011;40800;52.704;6.398;2023-03-20T10:03:29;20.42;;;16.55;;
54897;SDS011;40800;52.704;6.398;2023-03-20T10:06:03;18.85;;;16.75;;
54897;SDS011;40800;52.704;6.398;2023-03-20T10:08:32;19.83;;;16.88;;
54897;SDS011;40800;52.704;6.398;2023-03-20T10:11:05;20.33;;;18.23;;
54897;SDS011;40800;52.704;6.398;2023-03-20T10:14:35;19.70;;;17.70;;
54897;SDS011;40800;52.704;6.398;2023-03-20T10:16:44;18.00;;;16.10;;
54897;SDS011;40800;52.704;6.398;2023-03-20T10:19:20;18.95;;;17.10;;
54897;SDS011;40800;52.704;6.398;2023-03-20T10:22:03;20.52;;;16.42;;
54897;SDS011;40800;52.704;6.398;2023-03-20T10:24:40;18.98;;;17.08;;
54897;SDS011;40800;52.704;6.398;2023-03-20T10:27:51;19.80;;;17.42;;
54897;SDS011;40800;52.704;6.398;2023-03-20T10:35:22;21.45;;;18.02;;
54897;SDS011;40800;52.704;6.398;2023-03-20T10:40:37;20.88;;;17.63;;
54897;SDS011;40800;52.704;6.398;2023-03-20T10:43:25;20.23;;;18.17;;
54897;SDS011;40800;52.704;6.398;2023-03-20T10:46:02;19.88;;;17.88;;
54897;SDS011;40800;52.704;6.398;2023-03-20T10:48:31;20.75;;;18.63;;
54897;SDS011;40800;52.704;6.398;2023-03-20T10:51:20;21.13;;;18.88;;
54897;SDS011;40800;52.704;6.398;2023-03-20T10:53:53;21.70;;;19.52;;
54897;SDS011;40800;52.704;6.398;2023-03-20T10:56:26;20.63;;;18.55;;
54897;SDS011;40800;52.704;6.398;2023-03-20T11:01:46;20.38;;;18.58;;
54897;SDS011;40800;52.704;6.398;2023-03-20T11:04:12;21.35;;;19.25;;
54897;SDS011;40800;52.704;6.398;2023-03-20T11:06:40;20.88;;;18.88;;
54897;SDS011;40800;52.704;6.398;2023-03-20T11:09:27;22.17;;;19.88;;
54897;SDS011;40800;52.704;6.398;2023-03-20T11:11:57;21.40;;;19.40;;
54897;SDS011;40800;52.704;6.398;2023-03-20T11:14:26;21.52;;;19.50;;
54897;SDS011;40800;52.704;6.398;2023-03-20T11:19:36;21.02;;;18.67;;
54897;SDS011;40800;52.704;6.398;2023-03-20T11:22:23;20.48;;;18.38;;
54897;SDS011;40800;52.704;6.398;2023-03-20T11:24:50;18.17;;;16.67;;
54897;SDS011;40800;52.704;6.398;2023-03-20T11:27:26;16.98;;;15.55;;
54897;SDS011;40800;52.704;6.398;2023-03-20T11:29:53;17.95;;;16.35;;
54897;SDS011;40800;52.704;6.398;2023-03-20T11:32:33;16.80;;;15.27;;
54897;SDS011;40800;52.704;6.398;2023-03-20T11:35:13;16.65;;;15.05;;
54897;SDS011;40800;52.704;6.398;2023-03-20T11:37:53;15.57;;;14.05;;
54897;SDS011;40800;52.704;6.398;2023-03-20T11:40:30;16.08;;;14.50;;
54897;SDS011;40800;52.704;6.398;2023-03-20T11:45:25;15.07;;;13.80;;
54897;SDS011;40800;52.704;6.398;2023-03-20T11:47:59;14.70;;;13.23;;
54897;SDS011;40800;52.704;6.398;2023-03-20T11:52:53;14.35;;;13.07;;
54897;SDS011;40800;52.704;6.398;2023-03-20T11:55:24;14.68;;;13.48;;
54897;SDS011;40800;52.704;6.398;2023-03-20T11:58:03;15.43;;;14.02;;
54897;SDS011;40800;52.704;6.398;2023-03-20T12:00:40;15.80;;;14.30;;
54897;SDS011;40800;52.704;6.398;2023-03-20T12:06:43;14.93;;;13.57;;
54897;SDS011;40800;52.704;6.398;2023-03-20T12:20:15;14.57;;;13.27;;
54897;SDS011;40800;52.704;6.398;2023-03-20T12:23:05;15.23;;;13.80;;
54897;SDS011;40800;52.704;6.398;2023-03-20T12:25:54;15.75;;;14.32;;
54897;SDS011;40800;52.704;6.398;2023-03-20T12:31:31;17.00;;;15.18;;
54897;SDS011;40800;52.704;6.398;2023-03-20T12:34:11;18.83;;;17.05;;
54897;SDS011;40800;52.704;6.398;2023-03-20T12:36:41;20.92;;;19.27;;
54897;SDS011;40800;52.704;6.398;2023-03-20T12:39:16;23.83;;;22.13;;
54897;SDS011;40800;52.704;6.398;2023-03-20T12:50:25;40.83;;;38.22;;
54897;SDS011;40800;52.704;6.398;2023-03-20T12:53:04;41.85;;;39.17;;
54897;SDS011;40800;52.704;6.398;2023-03-20T13:04:26;48.28;;;45.00;;
54897;SDS011;40800;52.704;6.398;2023-03-20T13:18:04;49.22;;;46.13;;
54897;SDS011;40800;52.704;6.398;2023-03-20T13:20:36;48.80;;;45.88;;
54897;SDS011;40800;52.704;6.398;2023-03-20T13:25:53;46.85;;;44.15;;
54897;SDS011;40800;52.704;6.398;2023-03-20T13:33:33;52.10;;;48.67;;
54897;SDS011;40800;52.704;6.398;2023-03-20T13:36:24;51.47;;;48.28;;
54897;SDS011;40800;52.704;6.398;2023-03-20T13:39:11;53.20;;;49.53;;
54897;SDS011;40800;52.704;6.398;2023-03-20T13:41:49;54.25;;;50.92;;
54897;SDS011;40800;52.704;6.398;2023-03-20T13:44:16;54.50;;;51.13;;
54897;SDS011;40800;52.704;6.398;2023-03-20T13:46:48;55.90;;;52.35;;
54897;SDS011;40800;52.704;6.398;2023-03-20T13:49:19;55.58;;;51.85;;
54897;SDS011;40800;52.704;6.398;2023-03-20T13:51:57;56.65;;;52.97;;
54897;SDS011;40800;52.704;6.398;2023-03-20T13:57:27;58.35;;;54.33;;
54897;SDS011;40800;52.704;6.398;2023-03-20T14:03:14;55.70;;;51.67;;
54897;SDS011;40800;52.704;6.398;2023-03-20T14:05:42;57.83;;;53.92;;
54897;SDS011;40800;52.704;6.398;2023-03-20T14:13:49;55.70;;;51.90;;
54897;SDS011;40800;52.704;6.398;2023-03-20T14:16:19;59.30;;;54.97;;
54897;SDS011;40800;52.704;6.398;2023-03-20T14:18:49;61.05;;;57.03;;
54897;SDS011;40800;52.704;6.398;2023-03-20T14:21:29;59.05;;;55.05;;
54897;SDS011;40800;52.704;6.398;2023-03-20T14:23:59;58.10;;;54.35;;
54897;SDS011;40800;52.704;6.398;2023-03-20T14:26:29;59.28;;;54.95;;
54897;SDS011;40800;52.704;6.398;2023-03-20T14:28:57;59.45;;;55.33;;
54897;SDS011;40800;52.704;6.398;2023-03-20T14:31:46;61.30;;;56.97;;
54897;SDS011;40800;52.704;6.398;2023-03-20T14:34:18;62.47;;;57.83;;
54897;SDS011;40800;52.704;6.398;2023-03-20T14:42:18;61.45;;;57.30;;
54897;SDS011;40800;52.704;6.398;2023-03-20T14:45:12;63.25;;;58.83;;
54897;SDS011;40800;52.704;6.398;2023-03-20T14:50:49;65.72;;;60.38;;
54897;SDS011;40800;52.704;6.398;2023-03-20T14:53:30;64.85;;;60.28;;
54897;SDS011;40800;52.704;6.398;2023-03-20T14:56:05;59.83;;;55.33;;
54897;SDS011;40800;52.704;6.398;2023-03-20T15:01:05;62.17;;;57.17;;
54897;SDS011;40800;52.704;6.398;2023-03-20T15:03:35;60.85;;;56.10;;
54897;SDS011;40800;52.704;6.398;2023-03-20T15:06:04;61.85;;;56.88;;
54897;SDS011;40800;52.704;6.398;2023-03-20T15:08:32;60.97;;;56.08;;
54897;SDS011;40800;52.704;6.398;2023-03-20T15:11:06;61.25;;;56.40;;
54897;SDS011;40800;52.704;6.398;2023-03-20T15:13:34;63.20;;;58.22;;
54897;SDS011;40800;52.704;6.398;2023-03-20T15:16:08;62.63;;;57.45;;
54897;SDS011;40800;52.704;6.398;2023-03-20T15:18:37;58.65;;;54.33;;
54897;SDS011;40800;52.704;6.398;2023-03-20T15:21:47;61.78;;;56.75;;
54897;SDS011;40800;52.704;6.398;2023-03-20T15:24:05;59.47;;;55.05;;
54897;SDS011;40800;52.704;6.398;2023-03-20T15:26:32;62.30;;;57.70;;
54897;SDS011;40800;52.704;6.398;2023-03-20T15:29:17;61.80;;;57.13;;
54897;SDS011;40800;52.704;6.398;2023-03-20T15:31:43;62.03;;;57.22;;
54897;SDS011;40800;52.704;6.398;2023-03-20T15:34:29;61.22;;;56.20;;
54897;SDS011;40800;52.704;6.398;2023-03-20T15:36:57;61.85;;;57.17;;
54897;SDS011;40800;52.704;6.398;2023-03-20T15:39:26;63.22;;;58.22;;
54897;SDS011;40800;52.704;6.398;2023-03-20T15:41:57;65.05;;;59.95;;
54897;SDS011;40800;52.704;6.398;2023-03-20T15:44:39;63.65;;;58.25;;
54897;SDS011;40800;52.704;6.398;2023-03-20T15:49:35;62.13;;;57.35;;
54897;SDS011;40800;52.704;6.398;2023-03-20T15:52:03;62.75;;;57.70;;
54897;SDS011;40800;52.704;6.398;2023-03-20T15:54:31;66.20;;;60.85;;
54897;SDS011;40800;52.704;6.398;2023-03-20T15:57:01;62.03;;;57.00;;
54897;SDS011;40800;52.704;6.398;2023-03-20T15:59:29;62.78;;;57.67;;
54897;SDS011;40800;52.704;6.398;2023-03-20T16:01:58;65.47;;;60.25;;
54897;SDS011;40800;52.704;6.398;2023-03-20T16:04:24;63.67;;;58.67;;
54897;SDS011;40800;52.704;6.398;2023-03-20T16:06:55;65.05;;;59.72;;
54897;SDS011;40800;52.704;6.398;2023-03-20T16:09:22;66.72;;;61.20;;
54897;SDS011;40800;52.704;6.398;2023-03-20T16:11:53;66.22;;;60.63;;
54897;SDS011;40800;52.704;6.398;2023-03-20T16:14:22;68.05;;;62.33;;
54897;SDS011;40800;52.704;6.398;2023-03-20T16:16:50;68.43;;;62.92;;
54897;SDS011;40800;52.704;6.398;2023-03-20T16:19:17;67.13;;;61.83;;
54897;SDS011;40800;52.704;6.398;2023-03-20T16:21:45;64.75;;;59.47;;
54897;SDS011;40800;52.704;6.398;2023-03-20T16:24:14;66.28;;;61.28;;
54897;SDS011;40800;52.704;6.398;2023-03-20T16:26:44;69.28;;;63.88;;
54897;SDS011;40800;52.704;6.398;2023-03-20T16:29:13;68.25;;;62.95;;
54897;SDS011;40800;52.704;6.398;2023-03-20T16:34:15;66.10;;;60.63;;
54897;SDS011;40800;52.704;6.398;2023-03-20T16:36:48;71.05;;;65.10;;
54897;SDS011;40800;52.704;6.398;2023-03-20T16:39:18;71.03;;;64.97;;
54897;SDS011;40800;52.704;6.398;2023-03-20T16:41:45;71.68;;;65.88;;
54897;SDS011;40800;52.704;6.398;2023-03-20T16:44:17;71.72;;;65.80;;
54897;SDS011;40800;52.704;6.398;2023-03-20T16:46:57;73.55;;;67.25;;
54897;SDS011;40800;52.704;6.398;2023-03-20T16:50:02;73.05;;;67.15;;
54897;SDS011;40800;52.704;6.398;2023-03-20T16:52:40;71.13;;;65.07;;
54897;SDS011;40800;52.704;6.398;2023-03-20T16:55:13;74.32;;;68.13;;
54897;SDS011;40800;52.704;6.398;2023-03-20T16:57:48;72.72;;;66.85;;
54897;SDS011;40800;52.704;6.398;2023-03-20T17:02:59;83.30;;;76.32;;
54897;SDS011;40800;52.704;6.398;2023-03-20T17:05:53;77.88;;;71.55;;
54897;SDS011;40800;52.704;6.398;2023-03-20T17:08:24;80.53;;;73.90;;